Pittsburgh, Pennsylvania
Current Conditions -  °F | °C
As of 3:53 PM on Thursday 18 Dec 2014 (Local Time) from KAGC Reporting Station
Overcast Overcast  
Wind Chill: 19°   Ceiling: 2100
Heat Index: 28°   Visibility: 10mi
Dew Point: 18°   Wind: 10mph
Humidity: 66%   Direction: 240°WSW
Pressure: 30.14"   Gusts: NA
Location:  40.44°N, 80°W
Report Text: KAGC 182053Z 24009KT 10SM OVC021 M02/M08 A3014 RMK AO2 SLP228 T10221078 55001
Loading
Personal Weather Stations






























Interactive Weather Map New forecast layout! Learn more

10-Day Weather Forecast

Advertisements
Track Severe Weather on mobile